Time;durP1;ratioP1;P1;durP2;ratioP2;P2;SDS_P1;SDS_P2;PMS_P1;PMS_P2;Temp;Humidity;BMP_temperature;BMP_pressure;BME280_temperature;BME280_humidity;BME280_pressure;Samples;Min_cycle;Max_cycle;Signal;HPM_P1;HPM_P2
2022/12/06 00:00:48;;;;;;;12.30;11.30;;;2.30;99.90;;;;;;5099202;28;20457;-79
2022/12/06 00:03:16;;;;;;;12.68;11.57;;;2.30;99.90;;;;;;5094578;28;20425;-79
2022/12/06 00:05:43;;;;;;;12.30;11.20;;;2.30;99.90;;;;;;5094911;28;20427;-79
2022/12/06 00:08:09;;;;;;;13.18;12.07;;;2.30;99.90;;;;;;5100028;28;20515;-78
2022/12/06 00:10:36;;;;;;;12.55;11.45;;;2.40;99.90;;;;;;5102969;28;20427;-78
2022/12/06 00:13:04;;;;;;;12.07;10.98;;;2.40;99.90;;;;;;5095356;28;20428;-79
2022/12/06 00:15:30;;;;;;;11.55;10.60;;;2.30;99.90;;;;;;5091886;28;20422;-78
2022/12/06 00:17:57;;;;;;;12.05;10.95;;;2.40;99.90;;;;;;5096418;28;20949;-78
2022/12/06 00:20:25;;;;;;;13.20;12.00;;;2.40;99.90;;;;;;5089447;28;20441;-78
2022/12/06 00:22:52;;;;;;;12.90;11.80;;;2.40;99.90;;;;;;5123404;28;20856;-78
2022/12/06 00:25:19;;;;;;;12.35;11.15;;;2.40;99.90;;;;;;5114603;28;20406;-78
2022/12/06 00:27:45;;;;;;;12.55;11.35;;;2.40;99.90;;;;;;5112620;28;20436;-79
2022/12/06 00:30:12;;;;;;;12.85;11.45;;;2.40;99.90;;;;;;5109903;28;20508;-79
2022/12/06 00:32:39;;;;;;;13.77;12.38;;;2.40;99.90;;;;;;5112161;28;20508;-77
2022/12/06 00:35:07;;;;;;;12.38;11.27;;;2.40;99.90;;;;;;5097462;28;20437;-77
2022/12/06 00:37:35;;;;;;;12.10;11.00;;;2.50;99.90;;;;;;5101582;28;20429;-78
2022/12/06 00:40:01;;;;;;;12.60;11.43;;;2.50;99.90;;;;;;5097130;28;20532;-79
2022/12/06 00:42:28;;;;;;;12.85;11.65;;;2.50;99.90;;;;;;5098322;28;21065;-80
2022/12/06 00:44:55;;;;;;;12.88;11.68;;;2.50;99.90;;;;;;5090867;28;20434;-78
2022/12/06 00:47:22;;;;;;;12.80;11.60;;;2.50;99.90;;;;;;5105197;22;20555;-73
2022/12/06 00:49:48;;;;;;;12.88;11.68;;;2.50;99.90;;;;;;5021826;28;20430;-74
2022/12/06 00:52:15;;;;;;;13.80;12.50;;;2.50;99.90;;;;;;5019565;28;20427;-74
2022/12/06 00:54:43;;;;;;;13.18;11.98;;;2.50;99.90;;;;;;5019073;28;20435;-74
2022/12/06 00:57:10;;;;;;;13.30;12.00;;;2.50;99.90;;;;;;5027405;28;20430;-73
2022/12/06 00:59:37;;;;;;;13.00;11.80;;;2.50;99.90;;;;;;5006993;28;20787;-74
2022/12/06 01:02:06;;;;;;;13.32;12.02;;;2.50;99.90;;;;;;5002058;28;20420;-74
2022/12/06 01:04:32;;;;;;;13.48;12.18;;;2.50;99.90;;;;;;5004437;28;20427;-74
2022/12/06 01:07:00;;;;;;;14.05;12.05;;;2.50;99.90;;;;;;4997265;28;21071;-74
2022/12/06 01:09:29;;;;;;;13.20;11.90;;;2.50;99.90;;;;;;5000851;28;20441;-74
2022/12/06 01:11:58;;;;;;;14.25;12.85;;;2.50;99.90;;;;;;4999977;28;20487;-74
2022/12/06 01:14:25;;;;;;;14.50;12.98;;;2.50;99.90;;;;;;5001020;28;20416;-74
2022/12/06 01:16:51;;;;;;;15.00;13.60;;;2.50;99.90;;;;;;5009257;28;20802;-74
2022/12/06 01:19:18;;;;;;;14.00;12.60;;;2.60;99.90;;;;;;5024229;28;20434;-74
2022/12/06 01:21:45;;;;;;;13.70;12.40;;;2.60;99.90;;;;;;5029021;28;20415;-73
2022/12/06 01:24:12;;;;;;;14.80;13.07;;;2.60;99.90;;;;;;5005332;28;20443;-74
2022/12/06 01:26:38;;;;;;;15.50;13.45;;;2.60;99.90;;;;;;4999387;28;20505;-73
2022/12/06 01:29:07;;;;;;;15.32;13.82;;;2.60;99.90;;;;;;4998196;28;20422;-74
2022/12/06 01:31:34;;;;;;;14.88;13.38;;;2.60;99.90;;;;;;5002438;28;20424;-74
2022/12/06 01:34:01;;;;;;;15.15;13.65;;;2.60;99.90;;;;;;4997997;28;20436;-74
2022/12/06 01:36:28;;;;;;;15.82;14.05;;;2.60;99.90;;;;;;4998168;28;20437;-74
2022/12/06 01:38:56;;;;;;;17.08;14.60;;;2.60;99.90;;;;;;4994235;28;20444;-73
2022/12/06 01:41:25;;;;;;;16.27;14.47;;;2.60;99.90;;;;;;5002391;28;20810;-74
2022/12/06 01:43:53;;;;;;;15.48;13.88;;;2.60;99.90;;;;;;5005440;28;20443;-74
2022/12/06 01:46:28;;;;;;;16.30;14.47;;;2.70;99.90;;;;;;4997820;28;20475;-74
2022/12/06 01:49:03;;;;;;;18.03;15.50;;;2.70;99.90;;;;;;4996246;28;20461;-74
2022/12/06 01:51:30;;;;;;;18.95;15.82;;;2.70;99.90;;;;;;5005790;28;20935;-74
2022/12/06 01:53:59;;;;;;;18.75;16.73;;;2.70;99.90;;;;;;5007162;28;20934;-73
2022/12/06 01:56:26;;;;;;;19.65;16.85;;;2.60;99.90;;;;;;5001648;28;20437;-74
2022/12/06 01:58:56;;;;;;;18.55;16.08;;;2.70;99.90;;;;;;4999874;28;20440;-73
2022/12/06 02:01:26;;;;;;;19.23;17.23;;;2.70;99.90;;;;;;4999338;28;20940;-74
2022/12/06 02:03:55;;;;;;;19.55;17.05;;;2.70;99.90;;;;;;4997557;28;20447;-74
2022/12/06 02:06:22;;;;;;;18.70;16.48;;;2.70;99.90;;;;;;4995982;28;20438;-74
2022/12/06 02:08:50;;;;;;;20.05;17.17;;;2.70;99.90;;;;;;5003279;28;20444;-74
2022/12/06 02:11:17;;;;;;;20.77;16.90;;;2.70;99.90;;;;;;4996758;28;20440;-74
2022/12/06 02:13:45;;;;;;;23.98;18.08;;;2.70;99.90;;;;;;5002246;28;20440;-74
2022/12/06 02:16:30;;;;;;;19.05;16.60;;;2.80;99.90;;;;;;5000968;28;20851;-73
2022/12/06 02:19:04;;;;;;;21.20;17.60;;;2.80;99.90;;;;;;5003781;28;20433;-73
2022/12/06 02:21:41;;;;;;;22.13;17.40;;;2.80;99.90;;;;;;5004755;28;20433;-72
2022/12/06 02:24:34;;;;;;;20.50;17.75;;;2.70;99.90;;;;;;5003751;28;20429;-74
2022/12/06 02:27:18;;;;;;;20.55;17.70;;;2.80;99.90;;;;;;4996060;28;20460;-74
2022/12/06 02:30:07;;;;;;;20.90;17.75;;;2.80;99.90;;;;;;5003618;28;20436;-74
2022/12/06 02:32:42;;;;;;;21.67;18.10;;;2.80;99.90;;;;;;5002209;28;20463;-73
2022/12/06 02:35:15;;;;;;;21.83;18.42;;;2.80;99.90;;;;;;4999656;28;20891;-74
2022/12/06 02:37:47;;;;;;;24.35;18.45;;;2.90;99.90;;;;;;4998079;28;20803;-73
2022/12/06 02:40:19;;;;;;;21.42;18.25;;;2.90;99.90;;;;;;4999881;28;20496;-74
2022/12/06 02:42:51;;;;;;;22.08;18.55;;;2.90;99.90;;;;;;5006914;28;20436;-74
2022/12/06 02:45:21;;;;;;;23.20;19.00;;;2.90;99.90;;;;;;5002306;28;20436;-74
2022/12/06 02:47:52;;;;;;;23.98;20.15;;;2.90;99.90;;;;;;5006451;28;20438;-74
2022/12/06 02:50:23;;;;;;;23.88;20.27;;;2.90;99.90;;;;;;5001253;28;20444;-74
2022/12/06 02:52:52;;;;;;;24.92;21.38;;;2.90;99.90;;;;;;5001590;28;21872;-74
2022/12/06 02:55:21;;;;;;;27.77;21.50;;;2.90;99.90;;;;;;4997035;28;20943;-73
2022/12/06 02:57:51;;;;;;;23.48;20.10;;;2.90;99.90;;;;;;5007418;28;20800;-73
2022/12/06 03:00:34;;;;;;;25.13;19.65;;;2.90;99.90;;;;;;5004481;28;20425;-74
2022/12/06 03:03:17;;;;;;;24.02;19.25;;;2.90;99.90;;;;;;4993184;28;20439;-73
2022/12/06 03:06:01;;;;;;;25.63;20.90;;;2.90;99.90;;;;;;4999765;28;20434;-74
2022/12/06 03:08:36;;;;;;;24.83;20.20;;;2.90;99.90;;;;;;5001365;28;20424;-74
2022/12/06 03:11:04;;;;;;;24.40;21.05;;;2.90;99.90;;;;;;5009830;28;20665;-74
2022/12/06 03:13:36;;;;;;;23.90;20.92;;;3.00;99.90;;;;;;4992139;28;20465;-73
2022/12/06 03:16:15;;;;;;;24.63;21.65;;;3.00;99.90;;;;;;4992707;28;20521;-74
2022/12/06 03:18:48;;;;;;;23.40;19.50;;;3.00;99.90;;;;;;4992700;28;20813;-73
2022/12/06 03:21:19;;;;;;;22.10;19.75;;;3.00;99.90;;;;;;4998997;28;20461;-73
2022/12/06 03:23:49;;;;;;;24.02;20.10;;;3.00;99.90;;;;;;5005561;28;20449;-73
2022/12/06 03:26:20;;;;;;;24.45;19.92;;;3.00;99.90;;;;;;4995455;28;20421;-73
2022/12/06 03:28:48;;;;;;;22.35;18.55;;;3.00;99.90;;;;;;5003743;28;20443;-73
2022/12/06 03:31:15;;;;;;;21.73;19.25;;;3.00;99.90;;;;;;4999005;28;20896;-73
2022/12/06 03:33:51;;;;;;;23.38;19.83;;;3.00;99.90;;;;;;4998989;28;20422;-73
2022/12/06 03:36:19;;;;;;;22.70;19.60;;;3.00;99.90;;;;;;4997002;28;20464;-73
2022/12/06 03:38:51;;;;;;;23.35;20.02;;;3.00;99.90;;;;;;5002232;28;20440;-73
2022/12/06 03:41:22;;;;;;;21.58;18.92;;;3.00;99.90;;;;;;5006782;28;20440;-73
2022/12/06 03:43:49;;;;;;;23.48;20.30;;;3.10;99.90;;;;;;5000998;28;20444;-74
2022/12/06 03:46:20;;;;;;;26.17;20.60;;;3.10;99.90;;;;;;4995117;28;20433;-73
2022/12/06 03:48:51;;;;;;;23.83;20.67;;;3.10;99.90;;;;;;4999783;28;20466;-73
2022/12/06 03:51:23;;;;;;;25.05;21.23;;;3.10;99.90;;;;;;5000862;28;20440;-73
2022/12/06 03:53:53;;;;;;;26.55;21.88;;;3.00;99.90;;;;;;5004435;28;20915;-73
2022/12/06 03:56:20;;;;;;;26.27;20.37;;;3.00;99.90;;;;;;5002002;28;20510;-74
2022/12/06 03:58:47;;;;;;;25.70;21.00;;;3.10;99.90;;;;;;5001347;28;20435;-73
2022/12/06 04:01:14;;;;;;;24.85;20.73;;;3.10;99.90;;;;;;5001798;28;20433;-74
2022/12/06 04:03:41;;;;;;;29.73;22.35;;;3.10;99.90;;;;;;5008401;28;20946;-73
2022/12/06 04:06:10;;;;;;;27.27;22.15;;;3.10;99.90;;;;;;4999584;28;21066;-73
2022/12/06 04:08:37;;;;;;;28.65;23.05;;;3.10;99.90;;;;;;5001058;28;20440;-73
2022/12/06 04:11:04;;;;;;;28.95;22.00;;;3.10;99.90;;;;;;5006652;28;20459;-73
2022/12/06 04:13:32;;;;;;;31.52;23.70;;;3.10;99.90;;;;;;5004293;28;21068;-74
2022/12/06 04:16:00;;;;;;;31.23;23.13;;;3.10;99.90;;;;;;5008246;28;20439;-73
2022/12/06 04:18:27;;;;;;;33.15;23.35;;;3.10;99.90;;;;;;5002377;28;20441;-73
2022/12/06 04:23:46;;;;;;;26.17;22.03;;;3.20;99.90;;;;;;5003233;28;20505;-73
2022/12/06 04:26:14;;;;;;;31.05;22.77;;;3.20;99.90;;;;;;5005444;28;20449;-73
2022/12/06 04:39:41;;;;;;;32.08;23.15;;;3.20;99.90;;;;;;4998293;28;20955;-74
2022/12/06 04:44:52;;;;;;;34.40;23.35;;;3.10;99.90;;;;;;4997871;28;20428;-74
2022/12/06 04:47:19;;;;;;;35.65;25.92;;;3.10;99.90;;;;;;5000376;28;20440;-73
2022/12/06 04:49:46;;;;;;;33.77;24.13;;;3.10;99.90;;;;;;5004315;28;20485;-73
2022/12/06 04:52:14;;;;;;;36.60;23.63;;;3.20;99.90;;;;;;5004766;28;20474;-73
2022/12/06 04:54:42;;;;;;;34.10;23.98;;;3.30;99.90;;;;;;4998223;28;20438;-73
2022/12/06 04:57:11;;;;;;;40.80;25.58;;;3.30;99.90;;;;;;4996466;28;21015;-74
2022/12/06 04:59:39;;;;;;;37.00;24.67;;;3.30;99.90;;;;;;4989733;28;20433;-73
2022/12/06 05:02:06;;;;;;;38.40;24.25;;;3.30;99.90;;;;;;4996439;28;20909;-73
2022/12/06 05:04:34;;;;;;;40.17;24.60;;;3.30;99.90;;;;;;4998815;28;20444;-74
2022/12/06 05:07:00;;;;;;;38.20;24.08;;;3.30;99.90;;;;;;4998264;28;20436;-73
2022/12/06 05:09:27;;;;;;;36.72;24.98;;;3.20;99.90;;;;;;4991036;28;20442;-74
2022/12/06 05:11:55;;;;;;;36.70;23.63;;;3.30;99.90;;;;;;4999966;28;20931;-73
2022/12/06 05:14:22;;;;;;;39.17;23.10;;;3.30;99.90;;;;;;4987248;28;20428;-76
2022/12/06 05:16:49;;;;;;;38.17;23.17;;;3.30;99.90;;;;;;4989440;28;20438;-74
2022/12/06 05:19:16;;;;;;;36.25;22.40;;;3.30;99.90;;;;;;4997924;28;20438;-74
2022/12/06 05:21:42;;;;;;;36.23;21.70;;;3.30;99.90;;;;;;5004619;28;20469;-76
2022/12/06 05:24:09;;;;;;;37.70;26.13;;;3.40;99.90;;;;;;5004213;28;20436;-74
2022/12/06 05:26:36;;;;;;;30.90;22.40;;;3.40;99.90;;;;;;5003006;28;20437;-74
2022/12/06 05:29:04;;;;;;;34.95;23.95;;;3.40;99.90;;;;;;4996542;28;20807;-74
2022/12/06 05:31:31;;;;;;;33.63;23.42;;;3.40;99.90;;;;;;4996941;28;20434;-73
2022/12/06 05:33:58;;;;;;;30.30;22.50;;;3.40;99.90;;;;;;5005874;28;20433;-73
2022/12/06 05:36:27;;;;;;;32.25;22.45;;;3.40;99.90;;;;;;4998306;28;20452;-74
2022/12/06 05:38:55;;;;;;;32.60;21.23;;;3.40;99.90;;;;;;4991306;28;20422;-73
2022/12/06 05:41:24;;;;;;;33.20;22.35;;;3.40;99.90;;;;;;4995143;28;20445;-73
2022/12/06 05:43:52;;;;;;;28.40;20.80;;;3.40;99.90;;;;;;4997189;28;21151;-73
2022/12/06 05:46:20;;;;;;;29.98;22.25;;;3.40;99.90;;;;;;5007175;28;20445;-73
2022/12/06 05:48:47;;;;;;;27.08;20.30;;;3.40;99.90;;;;;;5001388;28;20441;-71
2022/12/06 05:51:13;;;;;;;31.33;21.60;;;3.40;99.90;;;;;;5001246;28;20493;-72
2022/12/06 05:53:40;;;;;;;29.10;21.58;;;3.40;99.90;;;;;;5003574;28;20436;-71
2022/12/06 05:56:09;;;;;;;29.30;20.80;;;3.40;99.90;;;;;;5004915;28;20448;-74
2022/12/06 05:58:36;;;;;;;29.58;21.55;;;3.40;99.90;;;;;;5002393;28;20457;-73
2022/12/06 06:01:02;;;;;;;30.98;21.30;;;3.50;99.90;;;;;;4996889;28;20455;-73
2022/12/06 06:03:31;;;;;;;29.67;22.10;;;3.40;99.90;;;;;;4991706;28;20559;-73
2022/12/06 06:05:59;;;;;;;29.58;21.48;;;3.40;99.90;;;;;;4996222;28;20429;-73
2022/12/06 06:08:26;;;;;;;29.83;21.90;;;3.40;99.90;;;;;;4997892;28;20438;-73
2022/12/06 06:10:53;;;;;;;28.75;21.13;;;3.40;99.90;;;;;;5004187;28;20445;-73
2022/12/06 06:13:20;;;;;;;29.65;21.33;;;3.50;99.90;;;;;;4998132;28;20507;-73
2022/12/06 06:15:48;;;;;;;27.25;20.45;;;3.50;99.90;;;;;;4998476;28;20436;-73
2022/12/06 06:18:15;;;;;;;29.47;22.07;;;3.50;99.90;;;;;;4999714;28;20819;-73
2022/12/06 06:20:48;;;;;;;30.30;21.98;;;3.50;99.90;;;;;;5001266;28;20916;-75
2022/12/06 06:23:15;;;;;;;30.20;22.50;;;3.50;99.90;;;;;;4996565;28;20461;-73
2022/12/06 06:25:42;;;;;;;29.90;21.60;;;3.50;99.90;;;;;;4990825;28;20434;-73
2022/12/06 06:28:09;;;;;;;36.55;22.15;;;3.50;99.90;;;;;;4998795;28;20441;-73
2022/12/06 06:30:36;;;;;;;34.25;21.60;;;3.60;99.90;;;;;;4999954;28;20913;-73
2022/12/06 06:33:03;;;;;;;32.08;22.83;;;3.60;99.90;;;;;;5001213;28;20461;-75
2022/12/06 06:35:29;;;;;;;30.70;21.58;;;3.60;99.90;;;;;;4998553;28;20438;-73
2022/12/06 06:37:58;;;;;;;31.45;22.13;;;3.60;99.90;;;;;;4999177;28;20518;-73
2022/12/06 06:40:25;;;;;;;32.65;21.30;;;3.60;99.90;;;;;;5000145;28;20866;-72
2022/12/06 06:42:51;;;;;;;27.80;20.30;;;3.70;99.90;;;;;;5002708;28;21310;-74
2022/12/06 06:45:18;;;;;;;29.65;20.77;;;3.70;99.90;;;;;;4999886;28;20440;-73
2022/12/06 06:47:45;;;;;;;32.38;22.02;;;3.60;99.90;;;;;;5000744;28;20923;-73
2022/12/06 06:50:12;;;;;;;38.20;23.15;;;3.70;99.90;;;;;;4993673;28;20428;-73
2022/12/06 06:52:39;;;;;;;35.80;22.95;;;3.60;99.90;;;;;;4998294;28;20439;-73
2022/12/06 06:55:08;;;;;;;33.13;22.55;;;3.70;99.90;;;;;;4992749;28;20421;-73
2022/12/06 06:57:35;;;;;;;32.63;21.90;;;3.60;99.90;;;;;;4994965;28;20432;-76
2022/12/06 07:00:02;;;;;;;34.00;22.70;;;3.70;99.90;;;;;;5031652;22;20427;-78
2022/12/06 07:02:29;;;;;;;34.17;22.50;;;3.70;99.90;;;;;;5015605;28;20438;-78
2022/12/06 07:04:55;;;;;;;40.15;23.00;;;3.70;99.90;;;;;;5014696;28;20420;-78
2022/12/06 07:07:22;;;;;;;37.53;22.77;;;3.70;99.90;;;;;;5015496;28;20419;-78
2022/12/06 07:09:49;;;;;;;40.17;21.77;;;3.70;99.90;;;;;;5014266;28;20444;-77
2022/12/06 07:12:17;;;;;;;36.55;22.98;;;3.80;99.90;;;;;;5008551;28;20444;-77
2022/12/06 07:14:44;;;;;;;37.33;23.55;;;3.80;99.90;;;;;;5000980;28;20442;-77
2022/12/06 07:17:10;;;;;;;32.60;22.98;;;3.80;99.90;;;;;;4999951;28;20431;-77
2022/12/06 07:19:37;;;;;;;37.38;22.42;;;3.80;99.90;;;;;;5001083;28;20880;-77
2022/12/06 07:22:04;;;;;;;36.47;21.70;;;3.80;99.90;;;;;;5002320;28;20464;-77
2022/12/06 07:24:31;;;;;;;34.90;23.70;;;3.80;99.90;;;;;;5021176;28;20434;-78
2022/12/06 07:26:58;;;;;;;34.80;22.98;;;3.80;99.90;;;;;;5021110;28;20440;-77
2022/12/06 07:29:26;;;;;;;34.17;23.15;;;3.90;99.90;;;;;;5024405;28;20489;-79
2022/12/06 07:31:53;;;;;;;32.40;22.17;;;3.80;99.90;;;;;;5012903;28;20440;-75
2022/12/06 07:34:22;;;;;;;29.85;22.38;;;3.80;99.90;;;;;;5003419;28;20440;-76
2022/12/06 07:36:49;;;;;;;30.15;21.63;;;3.90;99.90;;;;;;5000818;28;20927;-75
2022/12/06 07:39:15;;;;;;;32.95;22.80;;;3.90;99.90;;;;;;4990983;28;20432;-77
2022/12/06 07:47:12;;;;;;;34.00;22.10;;;3.90;99.90;;;;;;5006803;28;20744;-77
2022/12/06 07:49:39;;;;;;;33.72;23.98;;;4.00;99.90;;;;;;5002963;28;20512;-78
2022/12/06 07:52:06;;;;;;;34.75;27.25;;;4.00;99.90;;;;;;5019571;28;20435;-79
2022/12/06 07:54:34;;;;;;;32.00;23.13;;;4.00;99.90;;;;;;5022654;28;20448;-79
2022/12/06 07:57:01;;;;;;;35.08;23.35;;;4.00;99.90;;;;;;5030946;28;20455;-79
2022/12/06 07:59:29;;;;;;;35.10;24.58;;;4.10;99.90;;;;;;5013265;28;20495;-79
2022/12/06 08:01:56;;;;;;;30.73;23.10;;;4.00;99.90;;;;;;5004302;28;20510;-80
2022/12/06 08:04:22;;;;;;;34.78;25.40;;;4.00;99.90;;;;;;5014896;28;20420;-78
2022/12/06 08:06:49;;;;;;;33.65;24.60;;;4.00;99.90;;;;;;5009252;28;20433;-78
2022/12/06 08:09:16;;;;;;;34.63;24.10;;;4.00;99.90;;;;;;5001439;28;20502;-77
2022/12/06 08:11:43;;;;;;;34.55;24.70;;;4.10;99.90;;;;;;5002884;28;20438;-75
2022/12/06 08:14:10;;;;;;;33.53;23.73;;;4.10;99.90;;;;;;5013668;28;20443;-78
2022/12/06 08:16:39;;;;;;;32.83;23.85;;;4.10;99.90;;;;;;5003150;28;20435;-76
2022/12/06 08:19:06;;;;;;;35.67;23.92;;;4.10;99.90;;;;;;4996925;28;20924;-77
2022/12/06 08:21:33;;;;;;;33.88;25.25;;;4.10;99.90;;;;;;5003366;28;20467;-77
2022/12/06 08:24:01;;;;;;;32.58;24.10;;;4.20;99.90;;;;;;5000737;28;20438;-78
2022/12/06 08:26:27;;;;;;;31.75;23.38;;;4.10;99.90;;;;;;5003535;28;20467;-78
2022/12/06 08:28:54;;;;;;;29.95;22.58;;;4.10;99.90;;;;;;4998733;28;20456;-80
2022/12/06 08:31:23;;;;;;;29.50;22.13;;;4.20;99.90;;;;;;5014571;28;20522;-79
2022/12/06 08:33:51;;;;;;;31.55;23.25;;;4.10;99.90;;;;;;5001528;28;20439;-78
2022/12/06 08:36:20;;;;;;;29.92;22.45;;;4.20;99.90;;;;;;5003713;28;20558;-79
2022/12/06 08:38:48;;;;;;;30.42;22.40;;;4.20;99.90;;;;;;5004782;28;20433;-79
2022/12/06 08:44:01;;;;;;;26.63;21.27;;;4.20;99.90;;;;;;4998616;28;20417;-79
2022/12/06 08:46:28;;;;;;;26.75;20.67;;;4.30;99.90;;;;;;5001790;28;20441;-80
2022/12/06 08:48:57;;;;;;;32.50;24.63;;;4.30;99.90;;;;;;5000474;28;20436;-79
2022/12/06 08:51:24;;;;;;;24.88;20.65;;;4.30;99.90;;;;;;5005295;28;20424;-78
2022/12/06 08:53:53;;;;;;;27.75;20.67;;;4.30;99.90;;;;;;5001872;28;20523;-79
2022/12/06 08:56:20;;;;;;;28.10;20.40;;;4.40;99.90;;;;;;5007153;28;20436;-79
2022/12/06 08:58:46;;;;;;;27.13;20.67;;;4.40;99.90;;;;;;5000969;28;20436;-79
2022/12/06 09:01:15;;;;;;;28.42;20.10;;;4.40;99.90;;;;;;5002735;28;20752;-77
2022/12/06 09:03:42;;;;;;;29.08;19.83;;;4.50;99.90;;;;;;5011186;28;20540;-77
2022/12/06 09:06:11;;;;;;;31.25;20.73;;;4.50;99.90;;;;;;5016020;28;20435;-77
2022/12/06 09:08:38;;;;;;;29.08;20.25;;;4.50;99.90;;;;;;5003395;28;20426;-77
2022/12/06 09:11:06;;;;;;;26.60;19.00;;;4.60;99.90;;;;;;5004387;28;20515;-78
2022/12/06 09:13:33;;;;;;;26.60;20.20;;;4.60;99.90;;;;;;5008221;28;20465;-78
2022/12/06 09:16:00;;;;;;;26.50;20.27;;;4.60;99.90;;;;;;5004353;28;20433;-78
2022/12/06 09:18:28;;;;;;;26.50;19.35;;;4.60;99.90;;;;;;4996767;28;20963;-78
2022/12/06 09:20:55;;;;;;;27.75;20.60;;;4.60;99.90;;;;;;5004143;28;20512;-78
2022/12/06 09:23:23;;;;;;;28.75;20.60;;;4.60;99.90;;;;;;5002882;28;20440;-81
2022/12/06 09:25:50;;;;;;;28.85;19.85;;;4.70;99.90;;;;;;5003869;28;20434;-81
2022/12/06 09:28:17;;;;;;;27.55;20.42;;;4.70;99.90;;;;;;5004451;28;20430;-81
2022/12/06 09:30:44;;;;;;;24.60;19.13;;;4.70;99.90;;;;;;5005097;28;20938;-81
2022/12/06 09:33:11;;;;;;;24.83;19.07;;;4.80;99.90;;;;;;5008459;28;20437;-81
2022/12/06 09:35:38;;;;;;;24.67;18.27;;;4.80;99.90;;;;;;5021191;28;20911;-82
2022/12/06 09:38:06;;;;;;;25.37;18.47;;;4.80;99.90;;;;;;5004846;28;20430;-82
2022/12/06 09:59:52;;;;;;;22.10;16.88;;;5.00;99.90;;;;;;4988549;28;20946;-81
2022/12/06 10:02:33;;;;;;;20.90;16.90;;;5.00;99.90;;;;;;5003326;28;20440;-81
2022/12/06 10:05:22;;;;;;;20.07;16.03;;;5.00;99.90;;;;;;5012092;28;20625;-79
2022/12/06 10:07:58;;;;;;;20.48;16.48;;;5.00;99.90;;;;;;5001722;28;20446;-79
2022/12/06 10:10:33;;;;;;;19.33;15.75;;;5.00;99.90;;;;;;5004776;28;20455;-79
2022/12/06 10:13:07;;;;;;;18.55;15.68;;;5.00;99.90;;;;;;5011796;28;20434;-79
2022/12/06 10:15:43;;;;;;;17.85;15.55;;;5.00;99.90;;;;;;5004979;28;20959;-79
2022/12/06 10:18:31;;;;;;;18.75;15.43;;;5.10;99.90;;;;;;5004807;28;20546;-79
2022/12/06 10:21:24;;;;;;;19.10;15.47;;;5.10;99.90;;;;;;5003441;28;20443;-79
2022/12/06 10:24:07;;;;;;;16.35;14.57;;;5.00;99.90;;;;;;5001086;28;20499;-80
2022/12/06 10:26:48;;;;;;;17.48;15.20;;;5.00;99.90;;;;;;5000984;28;20775;-80
2022/12/06 10:29:20;;;;;;;19.30;15.55;;;5.00;99.90;;;;;;5004029;28;20440;-80
2022/12/06 10:31:57;;;;;;;17.08;14.90;;;5.00;99.90;;;;;;4997804;28;20549;-82
2022/12/06 10:34:43;;;;;;;19.35;15.73;;;5.00;99.90;;;;;;5009103;28;20441;-83
2022/12/06 10:37:25;;;;;;;18.77;15.35;;;5.00;99.90;;;;;;4996642;28;20436;-80
2022/12/06 10:39:57;;;;;;;16.67;14.80;;;5.00;99.90;;;;;;5001009;28;20835;-80
2022/12/06 10:42:34;;;;;;;17.30;14.95;;;5.10;99.90;;;;;;4997145;28;20469;-80
2022/12/06 10:47:02;;;;;;;16.73;14.93;;;5.10;99.90;;;;;;5004880;28;20476;-81
2022/12/06 10:48:01;;;;;;;15.83;14.13;;;5.20;99.90;;;;;;5025239;28;20574;-81
2022/12/06 10:50:36;;;;;;;15.32;13.73;;;5.20;99.90;;;;;;5010159;28;20413;-80
2022/12/06 10:53:10;;;;;;;15.60;13.32;;;5.30;99.90;;;;;;5013181;28;20441;-79
2022/12/06 10:55:43;;;;;;;15.52;13.70;;;5.30;99.90;;;;;;5002862;28;20445;-79
2022/12/06 10:58:19;;;;;;;16.20;14.50;;;5.40;99.90;;;;;;5008254;28;20431;-79
2022/12/06 11:00:53;;;;;;;13.23;11.82;;;5.40;99.90;;;;;;5004566;28;20448;-79
2022/12/06 11:03:24;;;;;;;14.40;13.00;;;5.40;99.90;;;;;;4999326;28;20921;-79
2022/12/06 11:05:56;;;;;;;15.73;14.10;;;5.40;99.90;;;;;;4999655;28;20763;-79
2022/12/06 11:08:29;;;;;;;14.25;12.85;;;5.40;99.90;;;;;;4999508;28;20665;-79
2022/12/06 11:10:59;;;;;;;14.30;12.80;;;5.40;99.90;;;;;;5008698;28;20451;-79
2022/12/06 11:13:32;;;;;;;14.13;12.20;;;5.40;99.90;;;;;;5005130;28;20466;-79
2022/12/06 11:16:05;;;;;;;13.90;12.60;;;5.40;99.90;;;;;;4999632;28;20443;-79
2022/12/06 11:18:33;;;;;;;13.80;12.40;;;5.40;99.90;;;;;;5005305;28;20436;-79
2022/12/06 11:21:06;;;;;;;13.32;12.02;;;5.40;99.90;;;;;;5004658;28;20432;-79
2022/12/06 11:23:40;;;;;;;13.47;12.10;;;5.40;99.90;;;;;;5001827;28;20441;-79
2022/12/06 11:26:17;;;;;;;13.77;12.27;;;5.50;99.90;;;;;;4996371;28;20549;-79
2022/12/06 11:28:54;;;;;;;13.35;12.05;;;5.40;99.90;;;;;;5016032;28;20434;-79
2022/12/06 11:31:29;;;;;;;13.77;12.00;;;5.50;99.90;;;;;;5006371;28;20468;-79
2022/12/06 11:33:57;;;;;;;12.25;11.05;;;5.40;99.90;;;;;;5003759;28;20440;-79
2022/12/06 11:36:28;;;;;;;12.80;11.50;;;5.40;99.90;;;;;;5008746;28;20911;-68
2022/12/06 11:38:55;;;;;;;13.20;11.90;;;5.50;99.90;;;;;;5013060;28;20507;-78
2022/12/06 11:41:25;;;;;;;12.40;11.10;;;5.40;99.90;;;;;;5018339;28;20439;-78
2022/12/06 11:43:52;;;;;;;12.88;10.55;;;5.50;99.90;;;;;;5001140;28;20446;-79
2022/12/06 11:46:20;;;;;;;11.88;10.68;;;5.50;99.90;;;;;;5012667;28;20427;-79
2022/12/06 11:48:47;;;;;;;11.02;10.00;;;5.50;99.90;;;;;;5004701;28;20424;-78
2022/12/06 11:51:19;;;;;;;12.75;11.45;;;5.40;99.90;;;;;;5011096;28;20432;-79
2022/12/06 11:54:00;;;;;;;10.95;9.63;;;5.50;99.90;;;;;;5012490;28;20424;-79
2022/12/06 11:56:29;;;;;;;11.13;9.93;;;5.50;99.90;;;;;;5004868;28;20998;-81
2022/12/06 11:59:08;;;;;;;10.48;9.32;;;5.40;99.90;;;;;;5011357;28;20867;-78
2022/12/06 12:01:41;;;;;;;11.07;9.70;;;5.50;99.90;;;;;;5003044;28;20444;-78
2022/12/06 12:04:24;;;;;;;10.30;9.30;;;5.50;99.90;;;;;;5010326;28;20425;-76
2022/12/06 12:06:56;;;;;;;9.45;8.65;;;5.50;99.90;;;;;;4996063;28;20444;-78
2022/12/06 12:09:27;;;;;;;9.60;8.60;;;5.50;99.90;;;;;;5012934;28;20747;-77
2022/12/06 12:11:59;;;;;;;9.80;8.50;;;5.50;99.90;;;;;;4998954;28;20440;-76
2022/12/06 12:14:29;;;;;;;9.40;8.50;;;5.50;99.90;;;;;;5013426;28;20422;-78
2022/12/06 12:16:59;;;;;;;10.15;9.15;;;5.50;99.90;;;;;;5027622;28;20450;-79
2022/12/06 12:19:33;;;;;;;10.90;9.40;;;5.40;99.90;;;;;;5022853;28;20440;-79
2022/12/06 12:22:15;;;;;;;10.73;9.73;;;5.50;99.90;;;;;;5025834;28;20488;-80
2022/12/06 12:24:48;;;;;;;12.80;11.00;;;5.50;99.90;;;;;;5013482;28;20749;-79
2022/12/06 12:27:32;;;;;;;10.60;9.60;;;5.50;99.90;;;;;;4992874;28;20425;-79
2022/12/06 12:30:22;;;;;;;9.77;8.77;;;5.50;99.90;;;;;;5007232;28;20428;-78
2022/12/06 12:32:51;;;;;;;9.48;8.57;;;5.60;99.90;;;;;;5023392;28;20430;-78
2022/12/06 12:35:26;;;;;;;10.30;9.30;;;5.60;99.90;;;;;;5007953;28;20487;-78
2022/12/06 12:37:56;;;;;;;9.60;8.70;;;5.50;99.90;;;;;;5005840;28;20527;-78
2022/12/06 12:40:28;;;;;;;9.73;8.73;;;5.60;99.90;;;;;;5007723;28;20435;-77
2022/12/06 12:43:02;;;;;;;8.85;8.05;;;5.60;99.90;;;;;;5007753;28;21052;-77
2022/12/06 12:45:29;;;;;;;9.90;8.15;;;5.60;99.90;;;;;;4995323;28;20455;-78
2022/12/06 12:47:58;;;;;;;9.55;8.55;;;5.70;99.90;;;;;;5000647;28;20454;-76
2022/12/06 12:50:25;;;;;;;9.40;8.43;;;5.70;99.90;;;;;;5004265;28;20451;-76
2022/12/06 12:52:53;;;;;;;9.90;9.00;;;5.70;99.90;;;;;;5009716;28;20443;-79
2022/12/06 12:55:22;;;;;;;9.95;8.95;;;5.70;99.90;;;;;;5004154;28;20505;-77
2022/12/06 12:57:52;;;;;;;9.45;8.57;;;5.60;99.90;;;;;;5000353;28;20436;-78
2022/12/06 13:00:22;;;;;;;9.90;8.90;;;5.70;99.90;;;;;;5003976;28;20512;-77
2022/12/06 13:02:53;;;;;;;9.80;8.90;;;5.70;99.90;;;;;;5011692;28;20439;-78
2022/12/06 13:05:24;;;;;;;10.40;9.50;;;5.70;99.90;;;;;;5011924;28;20440;-78
2022/12/06 13:07:55;;;;;;;8.77;7.88;;;5.70;99.90;;;;;;4997317;28;20442;-77
2022/12/06 13:10:29;;;;;;;8.07;7.38;;;5.70;99.90;;;;;;5009096;28;20445;-78
2022/12/06 13:13:00;;;;;;;8.45;7.65;;;5.80;99.90;;;;;;5007840;28;20440;-78
2022/12/06 13:15:33;;;;;;;8.20;7.40;;;5.80;99.90;;;;;;5003039;28;20959;-77
2022/12/06 13:18:05;;;;;;;8.00;7.30;;;5.80;99.90;;;;;;5005629;28;20436;-77
2022/12/06 13:20:34;;;;;;;8.60;7.45;;;5.80;99.90;;;;;;5005259;28;20923;-77
2022/12/06 13:23:05;;;;;;;6.65;6.15;;;5.80;99.90;;;;;;5001905;28;20515;-77
2022/12/06 13:25:32;;;;;;;7.00;6.40;;;5.80;99.90;;;;;;4998306;28;20422;-77
2022/12/06 13:28:03;;;;;;;7.07;6.47;;;5.80;99.90;;;;;;5007879;28;20877;-77
2022/12/06 13:30:33;;;;;;;6.70;6.10;;;5.90;99.90;;;;;;5006243;28;20437;-77
2022/12/06 13:33:04;;;;;;;7.97;7.28;;;5.90;99.90;;;;;;5001554;28;20447;-77
2022/12/06 13:35:35;;;;;;;7.90;7.20;;;5.90;99.90;;;;;;4999303;28;20457;-77